Plane Crash in Danbury

Tonight’s plane crash in Danbury (the second this month) actually showed up in a special weather observation at the Danbury Airport. I’ve never seen a report of a plane crash show up in a METAR here in Connecticut.

SPECI KDXR 170022Z 20008KT 10SM SCT090 OVC110 16/05 A2975 RMK AO2 AIRCRAFT MISHAP

Thoughts are with the family of the pilot who did not survive the crash.

Advertisements

Leave a Reply

Please log in using one of these methods to post your comment:

WordPress.com Logo

You are commenting using your WordPress.com account. Log Out / Change )

Twitter picture

You are commenting using your Twitter account. Log Out / Change )

Facebook photo

You are commenting using your Facebook account. Log Out / Change )

Google+ photo

You are commenting using your Google+ account. Log Out / Change )

Connecting to %s